sensor_id;sensor_type;location;lat;lon;timestamp;pressure;altitude;pressure_sealevel;temperature;humidity
20394;BME280;10356;50.544;9.642;2022-08-19T00:00:30;97828.88;;;19.08;90.96
20394;BME280;10356;50.544;9.642;2022-08-19T00:02:57;97834.69;;;19.03;90.76
20394;BME280;10356;50.544;9.642;2022-08-19T00:05:23;97831.78;;;18.98;91.52
20394;BME280;10356;50.544;9.642;2022-08-19T00:07:51;97830.31;;;18.96;91.86
20394;BME280;10356;50.544;9.642;2022-08-19T00:10:19;97827.56;;;18.89;92.21
20394;BME280;10356;50.544;9.642;2022-08-19T00:12:45;97827.56;;;18.89;92.26
20394;BME280;10356;50.544;9.642;2022-08-19T00:15:15;97822.03;;;18.84;92.39
20394;BME280;10356;50.544;9.642;2022-08-19T00:17:43;97818.75;;;18.82;92.53
20394;BME280;10356;50.544;9.642;2022-08-19T00:20:13;97826.03;;;18.80;92.82
20394;BME280;10356;50.544;9.642;2022-08-19T00:22:41;97822.13;;;18.76;92.49
20394;BME280;10356;50.544;9.642;2022-08-19T00:25:11;97814.09;;;18.70;93.17
20394;BME280;10356;50.544;9.642;2022-08-19T00:27:37;97814.91;;;18.70;93.22
20394;BME280;10356;50.544;9.642;2022-08-19T00:30:06;97813.63;;;18.66;94.03
20394;BME280;10356;50.544;9.642;2022-08-19T00:32:33;97818.44;;;18.63;94.27
20394;BME280;10356;50.544;9.642;2022-08-19T00:35:00;97812.69;;;18.59;94.45
20394;BME280;10356;50.544;9.642;2022-08-19T00:37:27;97812.06;;;18.57;94.32
20394;BME280;10356;50.544;9.642;2022-08-19T00:39:54;97804.97;;;18.58;94.26
20394;BME280;10356;50.544;9.642;2022-08-19T00:42:22;97802.88;;;18.53;94.70
20394;BME280;10356;50.544;9.642;2022-08-19T00:44:49;97809.78;;;18.54;94.51
20394;BME280;10356;50.544;9.642;2022-08-19T00:47:15;97798.75;;;18.51;94.41
20394;BME280;10356;50.544;9.642;2022-08-19T00:49:45;97787.41;;;18.50;94.49
20394;BME280;10356;50.544;9.642;2022-08-19T00:52:20;97785.75;;;18.49;94.39
20394;BME280;10356;50.544;9.642;2022-08-19T00:54:47;97794.69;;;18.48;94.79
20394;BME280;10356;50.544;9.642;2022-08-19T00:57:17;97790.09;;;18.42;95.18
20394;BME280;10356;50.544;9.642;2022-08-19T00:59:47;97794.03;;;18.46;95.27
20394;BME280;10356;50.544;9.642;2022-08-19T01:02:17;97788.13;;;18.44;95.37
20394;BME280;10356;50.544;9.642;2022-08-19T01:04:44;97788.13;;;18.44;95.51
20394;BME280;10356;50.544;9.642;2022-08-19T01:07:12;97784.91;;;18.49;94.79
20394;BME280;10356;50.544;9.642;2022-08-19T01:09:39;97782.78;;;18.52;94.75
20394;BME280;10356;50.544;9.642;2022-08-19T01:12:06;97782.84;;;18.44;94.92
20394;BME280;10356;50.544;9.642;2022-08-19T01:14:33;97784.25;;;18.32;95.86
20394;BME280;10356;50.544;9.642;2022-08-19T01:17:01;97771.59;;;18.27;96.44
20394;BME280;10356;50.544;9.642;2022-08-19T01:19:31;97776.59;;;18.37;95.69
20394;BME280;10356;50.544;9.642;2022-08-19T01:22:03;97777.69;;;18.28;96.70
20394;BME280;10356;50.544;9.642;2022-08-19T01:24:33;97788.38;;;18.26;96.86
20394;BME280;10356;50.544;9.642;2022-08-19T01:27:03;97792.69;;;18.27;96.41
20394;BME280;10356;50.544;9.642;2022-08-19T01:29:30;97797.97;;;18.27;96.49
20394;BME280;10356;50.544;9.642;2022-08-19T01:31:57;97809.34;;;18.28;96.76
20394;BME280;10356;50.544;9.642;2022-08-19T01:34:25;97804.84;;;18.28;96.88
20394;BME280;10356;50.544;9.642;2022-08-19T01:36:51;97793.25;;;18.37;96.76
20394;BME280;10356;50.544;9.642;2022-08-19T01:39:23;97804.78;;;18.36;96.72
20394;BME280;10356;50.544;9.642;2022-08-19T01:41:51;97804.34;;;18.33;96.70
20394;BME280;10356;50.544;9.642;2022-08-19T01:44:20;97799.88;;;18.33;97.30
20394;BME280;10356;50.544;9.642;2022-08-19T01:46:49;97798.88;;;18.34;97.16
20394;BME280;10356;50.544;9.642;2022-08-19T01:49:18;97801.41;;;18.28;97.05
20394;BME280;10356;50.544;9.642;2022-08-19T01:51:45;97801.41;;;18.28;97.41
20394;BME280;10356;50.544;9.642;2022-08-19T01:54:13;97801.13;;;18.23;97.71
20394;BME280;10356;50.544;9.642;2022-08-19T01:56:40;97793.22;;;18.23;97.52
20394;BME280;10356;50.544;9.642;2022-08-19T01:59:13;97799.84;;;18.19;98.02
20394;BME280;10356;50.544;9.642;2022-08-19T02:01:40;97801.66;;;18.18;98.27
20394;BME280;10356;50.544;9.642;2022-08-19T02:04:07;97814.13;;;18.02;99.55
20394;BME280;10356;50.544;9.642;2022-08-19T02:06:34;97814.38;;;18.15;99.01
20394;BME280;10356;50.544;9.642;2022-08-19T02:09:02;97813.03;;;18.19;98.71
20394;BME280;10356;50.544;9.642;2022-08-19T02:11:30;97808.38;;;18.21;98.56
20394;BME280;10356;50.544;9.642;2022-08-19T02:13:59;97810.84;;;18.22;98.66
20394;BME280;10356;50.544;9.642;2022-08-19T02:16:28;97814.31;;;18.23;98.87
20394;BME280;10356;50.544;9.642;2022-08-19T02:18:55;97816.03;;;18.16;98.94
20394;BME280;10356;50.544;9.642;2022-08-19T02:21:23;97809.09;;;18.15;99.17
20394;BME280;10356;50.544;9.642;2022-08-19T02:23:51;97812.91;;;18.12;99.00
20394;BME280;10356;50.544;9.642;2022-08-19T02:26:18;97798.63;;;18.07;99.66
20394;BME280;10356;50.544;9.642;2022-08-19T02:28:45;97802.59;;;18.03;99.88
20394;BME280;10356;50.544;9.642;2022-08-19T02:31:15;97812.84;;;17.98;100.00
20394;BME280;10356;50.544;9.642;2022-08-19T02:33:44;97816.66;;;17.95;100.00
20394;BME280;10356;50.544;9.642;2022-08-19T02:36:12;97819.63;;;17.92;100.00
20394;BME280;10356;50.544;9.642;2022-08-19T02:38:40;97821.63;;;17.90;100.00
20394;BME280;10356;50.544;9.642;2022-08-19T02:41:08;97818.47;;;17.95;100.00
20394;BME280;10356;50.544;9.642;2022-08-19T02:43:37;97820.47;;;17.93;100.00
20394;BME280;10356;50.544;9.642;2022-08-19T02:46:11;97820.47;;;17.93;100.00
20394;BME280;10356;50.544;9.642;2022-08-19T02:48:38;97815.84;;;17.95;100.00
20394;BME280;10356;50.544;9.642;2022-08-19T02:51:06;97821.56;;;17.98;100.00
20394;BME280;10356;50.544;9.642;2022-08-19T02:53:33;97821.38;;;18.00;100.00
20394;BME280;10356;50.544;9.642;2022-08-19T02:56:00;97821.06;;;18.03;100.00
20394;BME280;10356;50.544;9.642;2022-08-19T02:58:26;97816.44;;;18.05;100.00
20394;BME280;10356;50.544;9.642;2022-08-19T03:00:54;97820.72;;;18.06;100.00
20394;BME280;10356;50.544;9.642;2022-08-19T03:03:21;97822.34;;;18.07;100.00
20394;BME280;10356;50.544;9.642;2022-08-19T03:05:48;97823.34;;;18.06;100.00
20394;BME280;10356;50.544;9.642;2022-08-19T03:08:16;97826.97;;;18.05;100.00
20394;BME280;10356;50.544;9.642;2022-08-19T03:10:44;97825.34;;;18.04;100.00
20394;BME280;10356;50.544;9.642;2022-08-19T03:13:12;97830.78;;;18.02;100.00
20394;BME280;10356;50.544;9.642;2022-08-19T03:15:41;97831.59;;;18.03;100.00
20394;BME280;10356;50.544;9.642;2022-08-19T03:18:07;97833.94;;;17.98;100.00
20394;BME280;10356;50.544;9.642;2022-08-19T03:20:40;97831.13;;;17.99;100.00
20394;BME280;10356;50.544;9.642;2022-08-19T03:23:06;97823.38;;;17.98;100.00
20394;BME280;10356;50.544;9.642;2022-08-19T03:25:38;97839.38;;;17.96;100.00
20394;BME280;10356;50.544;9.642;2022-08-19T03:28:07;97843.19;;;17.94;100.00
20394;BME280;10356;50.544;9.642;2022-08-19T03:30:33;97843.88;;;17.88;100.00
20394;BME280;10356;50.544;9.642;2022-08-19T03:33:00;97840.97;;;17.83;100.00
20394;BME280;10356;50.544;9.642;2022-08-19T03:35:27;97837.03;;;17.79;100.00
20394;BME280;10356;50.544;9.642;2022-08-19T03:37:53;97826.81;;;17.76;100.00
20394;BME280;10356;50.544;9.642;2022-08-19T03:40:21;97824.53;;;17.73;100.00
20394;BME280;10356;50.544;9.642;2022-08-19T03:42:49;97825.88;;;17.69;100.00
20394;BME280;10356;50.544;9.642;2022-08-19T03:45:16;97831.66;;;17.64;100.00
20394;BME280;10356;50.544;9.642;2022-08-19T03:47:42;97840.09;;;17.59;100.00
20394;BME280;10356;50.544;9.642;2022-08-19T03:50:10;97845.72;;;17.56;100.00
20394;BME280;10356;50.544;9.642;2022-08-19T03:52:37;97843.25;;;17.55;100.00
20394;BME280;10356;50.544;9.642;2022-08-19T03:55:05;97839.16;;;17.52;100.00
20394;BME280;10356;50.544;9.642;2022-08-19T03:57:32;97840.13;;;17.51;100.00
20394;BME280;10356;50.544;9.642;2022-08-19T04:00:01;97841.13;;;17.50;100.00
20394;BME280;10356;50.544;9.642;2022-08-19T04:02:29;97831.56;;;17.49;100.00
20394;BME280;10356;50.544;9.642;2022-08-19T04:04:56;97839.47;;;17.49;100.00
20394;BME280;10356;50.544;9.642;2022-08-19T04:07:22;97841.63;;;17.46;100.00
20394;BME280;10356;50.544;9.642;2022-08-19T04:09:50;97832.09;;;17.45;100.00
20394;BME280;10356;50.544;9.642;2022-08-19T04:12:17;97838.16;;;17.45;100.00
20394;BME280;10356;50.544;9.642;2022-08-19T04:14:45;97843.41;;;17.45;100.00
20394;BME280;10356;50.544;9.642;2022-08-19T04:17:13;97856.13;;;17.50;100.00
20394;BME280;10356;50.544;9.642;2022-08-19T04:19:40;97850.00;;;17.49;100.00
20394;BME280;10356;50.544;9.642;2022-08-19T04:22:08;97846.03;;;17.53;100.00
20394;BME280;10356;50.544;9.642;2022-08-19T04:24:36;97850.47;;;17.61;100.00
20394;BME280;10356;50.544;9.642;2022-08-19T04:27:03;97841.38;;;17.63;100.00
20394;BME280;10356;50.544;9.642;2022-08-19T04:29:31;97843.69;;;17.67;100.00
20394;BME280;10356;50.544;9.642;2022-08-19T04:31:58;97841.53;;;17.70;100.00
20394;BME280;10356;50.544;9.642;2022-08-19T04:34:28;97842.00;;;17.74;100.00
20394;BME280;10356;50.544;9.642;2022-08-19T04:36:56;97848.56;;;17.78;100.00
20394;BME280;10356;50.544;9.642;2022-08-19T04:39:25;97847.22;;;17.82;100.00
20394;BME280;10356;50.544;9.642;2022-08-19T04:42:12;97837.63;;;17.89;100.00
20394;BME280;10356;50.544;9.642;2022-08-19T04:44:57;97844.84;;;17.95;100.00
20394;BME280;10356;50.544;9.642;2022-08-19T04:47:24;97835.22;;;18.02;100.00
20394;BME280;10356;50.544;9.642;2022-08-19T04:49:52;97842.78;;;18.05;100.00
20394;BME280;10356;50.544;9.642;2022-08-19T04:52:19;97839.19;;;18.06;100.00
20394;BME280;10356;50.544;9.642;2022-08-19T04:54:45;97848.53;;;18.08;100.00
20394;BME280;10356;50.544;9.642;2022-08-19T04:57:12;97841.13;;;18.12;100.00
20394;BME280;10356;50.544;9.642;2022-08-19T04:59:39;97849.66;;;18.14;100.00
20394;BME280;10356;50.544;9.642;2022-08-19T05:02:07;97840.34;;;18.26;100.00
20394;BME280;10356;50.544;9.642;2022-08-19T05:04:35;97843.78;;;18.26;100.00
20394;BME280;10356;50.544;9.642;2022-08-19T05:07:06;97846.34;;;18.34;100.00
20394;BME280;10356;50.544;9.642;2022-08-19T05:09:33;97851.63;;;18.34;100.00
20394;BME280;10356;50.544;9.642;2022-08-19T05:12:00;97851.16;;;18.31;100.00
20394;BME280;10356;50.544;9.642;2022-08-19T05:14:27;97853.28;;;18.35;100.00
20394;BME280;10356;50.544;9.642;2022-08-19T05:16:54;97857.84;;;18.41;100.00
20394;BME280;10356;50.544;9.642;2022-08-19T05:19:21;97861.16;;;18.43;100.00
20394;BME280;10356;50.544;9.642;2022-08-19T05:22:06;97862.09;;;18.51;100.00
20394;BME280;10356;50.544;9.642;2022-08-19T05:24:50;97868.31;;;18.58;100.00
20394;BME280;10356;50.544;9.642;2022-08-19T05:27:17;97867.13;;;18.60;100.00
20394;BME280;10356;50.544;9.642;2022-08-19T05:29:43;97866.69;;;18.71;100.00
20394;BME280;10356;50.544;9.642;2022-08-19T05:32:10;97860.50;;;18.79;100.00
20394;BME280;10356;50.544;9.642;2022-08-19T05:34:36;97867.56;;;18.86;100.00
20394;BME280;10356;50.544;9.642;2022-08-19T05:37:06;97870.28;;;18.93;100.00
20394;BME280;10356;50.544;9.642;2022-08-19T05:39:35;97869.00;;;19.03;100.00
20394;BME280;10356;50.544;9.642;2022-08-19T05:42:04;97876.84;;;19.11;100.00
20394;BME280;10356;50.544;9.642;2022-08-19T05:44:34;97874.13;;;19.19;100.00
20394;BME280;10356;50.544;9.642;2022-08-19T05:47:04;97876.03;;;19.25;100.00
20394;BME280;10356;50.544;9.642;2022-08-19T05:49:31;97891.47;;;19.37;99.66
20394;BME280;10356;50.544;9.642;2022-08-19T05:52:01;97888.75;;;19.45;99.98
20394;BME280;10356;50.544;9.642;2022-08-19T05:54:30;97890.00;;;19.49;99.08
20394;BME280;10356;50.544;9.642;2022-08-19T05:56:56;97889.19;;;19.48;98.37
20394;BME280;10356;50.544;9.642;2022-08-19T05:59:23;97884.97;;;19.54;98.83
20394;BME280;10356;50.544;9.642;2022-08-19T06:01:51;97891.63;;;19.50;98.19
20394;BME280;10356;50.544;9.642;2022-08-19T06:04:20;97896.81;;;19.58;99.36
20394;BME280;10356;50.544;9.642;2022-08-19T06:06:47;97895.34;;;19.70;98.49
20394;BME280;10356;50.544;9.642;2022-08-19T06:09:14;97894.25;;;19.79;97.87
20394;BME280;10356;50.544;9.642;2022-08-19T06:11:44;97903.06;;;19.86;95.92
20394;BME280;10356;50.544;9.642;2022-08-19T06:14:14;97897.03;;;19.92;95.88
20394;BME280;10356;50.544;9.642;2022-08-19T06:16:43;97900.31;;;19.94;94.92
20394;BME280;10356;50.544;9.642;2022-08-19T06:19:12;97906.00;;;19.91;95.28
20394;BME280;10356;50.544;9.642;2022-08-19T06:21:41;97907.91;;;19.97;95.30
20394;BME280;10356;50.544;9.642;2022-08-19T06:24:10;97913.44;;;20.02;95.09
20394;BME280;10356;50.544;9.642;2022-08-19T06:26:39;97916.72;;;20.04;94.94
20394;BME280;10356;50.544;9.642;2022-08-19T06:29:10;97923.66;;;20.05;94.63
20394;BME280;10356;50.544;9.642;2022-08-19T06:31:40;97935.13;;;20.12;94.54
20394;BME280;10356;50.544;9.642;2022-08-19T06:34:07;97934.88;;;20.07;94.47
20394;BME280;10356;50.544;9.642;2022-08-19T06:36:36;97945.81;;;20.04;94.31
20394;BME280;10356;50.544;9.642;2022-08-19T06:39:04;97943.81;;;20.06;94.73
20394;BME280;10356;50.544;9.642;2022-08-19T06:41:34;97944.44;;;20.08;95.17
20394;BME280;10356;50.544;9.642;2022-08-19T06:44:02;97939.34;;;20.21;94.08
20394;BME280;10356;50.544;9.642;2022-08-19T06:46:30;97935.31;;;20.25;93.85
20394;BME280;10356;50.544;9.642;2022-08-19T06:48:58;97945.16;;;20.31;94.25
20394;BME280;10356;50.544;9.642;2022-08-19T06:51:25;97948.03;;;20.36;93.32
20394;BME280;10356;50.544;9.642;2022-08-19T06:53:53;97964.84;;;20.43;92.66
20394;BME280;10356;50.544;9.642;2022-08-19T06:56:22;97958.03;;;20.55;91.30
20394;BME280;10356;50.544;9.642;2022-08-19T06:58:51;97962.25;;;20.50;91.68
20394;BME280;10356;50.544;9.642;2022-08-19T07:01:19;97961.03;;;20.52;91.80
20394;BME280;10356;50.544;9.642;2022-08-19T07:03:47;97967.88;;;20.61;91.76
20394;BME280;10356;50.544;9.642;2022-08-19T07:06:16;97970.16;;;20.64;91.83
20394;BME280;10356;50.544;9.642;2022-08-19T07:08:44;97968.38;;;20.71;91.43
20394;BME280;10356;50.544;9.642;2022-08-19T07:11:13;97967.38;;;20.72;90.86
20394;BME280;10356;50.544;9.642;2022-08-19T07:13:40;97976.59;;;20.76;89.88
20394;BME280;10356;50.544;9.642;2022-08-19T07:16:11;97968.88;;;20.81;90.14
20394;BME280;10356;50.544;9.642;2022-08-19T07:18:39;97965.88;;;20.84;90.28
20394;BME280;10356;50.544;9.642;2022-08-19T07:21:09;97964.72;;;20.93;89.75
20394;BME280;10356;50.544;9.642;2022-08-19T07:23:36;97960.81;;;21.11;88.73
20394;BME280;10356;50.544;9.642;2022-08-19T07:26:05;97954.16;;;21.21;88.14
20394;BME280;10356;50.544;9.642;2022-08-19T07:28:31;97960.06;;;21.17;87.45
20394;BME280;10356;50.544;9.642;2022-08-19T07:30:58;97954.59;;;21.25;87.51
20394;BME280;10356;50.544;9.642;2022-08-19T07:33:27;97958.09;;;21.32;87.38
20394;BME280;10356;50.544;9.642;2022-08-19T07:35:55;97953.91;;;21.44;86.27
20394;BME280;10356;50.544;9.642;2022-08-19T07:38:23;97951.97;;;21.59;85.28
20394;BME280;10356;50.544;9.642;2022-08-19T07:40:49;97954.28;;;21.68;84.10
20394;BME280;10356;50.544;9.642;2022-08-19T07:43:16;97959.16;;;21.65;84.97
20394;BME280;10356;50.544;9.642;2022-08-19T07:45:50;97966.28;;;21.64;84.12
20394;BME280;10356;50.544;9.642;2022-08-19T07:48:17;97969.06;;;21.84;82.64
20394;BME280;10356;50.544;9.642;2022-08-19T07:50:43;97975.28;;;21.98;81.81
20394;BME280;10356;50.544;9.642;2022-08-19T07:53:10;97970.84;;;22.11;80.45
20394;BME280;10356;50.544;9.642;2022-08-19T07:55:39;97969.00;;;22.12;78.83
20394;BME280;10356;50.544;9.642;2022-08-19T07:58:06;97978.91;;;21.90;78.54
20394;BME280;10356;50.544;9.642;2022-08-19T08:00:32;97985.78;;;21.50;77.12
20394;BME280;10356;50.544;9.642;2022-08-19T08:03:00;97987.97;;;21.74;77.36
20394;BME280;10356;50.544;9.642;2022-08-19T08:05:27;97987.00;;;21.82;76.93
20394;BME280;10356;50.544;9.642;2022-08-19T08:08:11;98000.13;;;21.90;75.90
20394;BME280;10356;50.544;9.642;2022-08-19T08:11:05;98004.44;;;21.91;76.48
20394;BME280;10356;50.544;9.642;2022-08-19T08:13:32;97993.31;;;22.15;75.29
20394;BME280;10356;50.544;9.642;2022-08-19T08:16:00;98003.06;;;22.08;74.47
20394;BME280;10356;50.544;9.642;2022-08-19T08:18:27;98006.59;;;22.15;74.05
20394;BME280;10356;50.544;9.642;2022-08-19T08:20:56;98008.22;;;22.16;73.82
20394;BME280;10356;50.544;9.642;2022-08-19T08:23:24;97997.97;;;22.07;74.22
20394;BME280;10356;50.544;9.642;2022-08-19T08:25:52;97998.00;;;22.13;73.38
20394;BME280;10356;50.544;9.642;2022-08-19T08:28:21;98002.53;;;22.19;71.91
20394;BME280;10356;50.544;9.642;2022-08-19T08:30:49;97998.84;;;22.14;72.06
20394;BME280;10356;50.544;9.642;2022-08-19T08:33:18;98004.72;;;22.09;71.75
20394;BME280;10356;50.544;9.642;2022-08-19T08:35:45;97999.00;;;22.12;72.02
20394;BME280;10356;50.544;9.642;2022-08-19T08:38:12;97991.03;;;22.12;71.74
20394;BME280;10356;50.544;9.642;2022-08-19T08:40:43;97989.06;;;22.27;72.53
20394;BME280;10356;50.544;9.642;2022-08-19T08:43:21;97983.44;;;22.56;71.51
20394;BME280;10356;50.544;9.642;2022-08-19T08:45:52;97975.47;;;22.56;71.16
20394;BME280;10356;50.544;9.642;2022-08-19T08:48:27;97984.97;;;22.92;70.71
20394;BME280;10356;50.544;9.642;2022-08-19T08:50:58;97993.31;;;22.89;69.41
20394;BME280;10356;50.544;9.642;2022-08-19T08:53:26;98004.78;;;22.76;70.10
20394;BME280;10356;50.544;9.642;2022-08-19T08:55:53;98017.34;;;22.54;70.16
20394;BME280;10356;50.544;9.642;2022-08-19T08:58:29;98006.09;;;22.52;70.06
20394;BME280;10356;50.544;9.642;2022-08-19T09:00:58;98007.25;;;22.30;70.86
20394;BME280;10356;50.544;9.642;2022-08-19T09:03:26;98004.31;;;22.60;70.69
20394;BME280;10356;50.544;9.642;2022-08-19T09:05:59;97998.88;;;22.94;68.13
20394;BME280;10356;50.544;9.642;2022-08-19T09:08:37;97995.38;;;22.87;67.01
20394;BME280;10356;50.544;9.642;2022-08-19T09:11:08;97996.81;;;22.96;67.68
20394;BME280;10356;50.544;9.642;2022-08-19T09:13:43;98001.97;;;23.10;66.49
20394;BME280;10356;50.544;9.642;2022-08-19T09:16:17;97996.06;;;23.34;65.97
20394;BME280;10356;50.544;9.642;2022-08-19T09:18:47;98002.78;;;23.24;65.36
20394;BME280;10356;50.544;9.642;2022-08-19T09:21:18;98011.78;;;23.10;64.88
20394;BME280;10356;50.544;9.642;2022-08-19T09:23:45;98007.66;;;23.01;65.62
20394;BME280;10356;50.544;9.642;2022-08-19T09:26:13;98002.53;;;22.93;65.64
20394;BME280;10356;50.544;9.642;2022-08-19T09:28:43;98006.03;;;23.00;65.81
20394;BME280;10356;50.544;9.642;2022-08-19T09:31:11;98014.63;;;23.15;64.79
20394;BME280;10356;50.544;9.642;2022-08-19T09:33:38;98017.72;;;23.31;64.03
20394;BME280;10356;50.544;9.642;2022-08-19T09:36:06;98017.13;;;23.36;63.40
20394;BME280;10356;50.544;9.642;2022-08-19T09:38:33;98008.09;;;23.44;64.13
20394;BME280;10356;50.544;9.642;2022-08-19T09:41:04;98009.31;;;23.21;64.09
20394;BME280;10356;50.544;9.642;2022-08-19T09:43:31;98014.63;;;23.15;63.89
20394;BME280;10356;50.544;9.642;2022-08-19T09:45:59;98016.69;;;23.06;63.90
20394;BME280;10356;50.544;9.642;2022-08-19T09:48:26;98012.16;;;23.07;63.28
20394;BME280;10356;50.544;9.642;2022-08-19T09:50:53;98010.75;;;23.24;63.28
20394;BME280;10356;50.544;9.642;2022-08-19T09:53:19;98013.03;;;23.33;62.46
20394;BME280;10356;50.544;9.642;2022-08-19T09:55:48;98017.72;;;23.31;61.70
20394;BME280;10356;50.544;9.642;2022-08-19T09:58:15;98011.38;;;23.46;62.09
20394;BME280;10356;50.544;9.642;2022-08-19T10:00:42;98019.56;;;23.44;62.21
20394;BME280;10356;50.544;9.642;2022-08-19T10:03:09;98019.75;;;23.75;60.52
20394;BME280;10356;50.544;9.642;2022-08-19T10:05:36;98013.00;;;23.73;60.73
20394;BME280;10356;50.544;9.642;2022-08-19T10:08:17;98010.94;;;23.62;61.04
20394;BME280;10356;50.544;9.642;2022-08-19T10:10:44;98014.44;;;23.62;61.65
20394;BME280;10356;50.544;9.642;2022-08-19T10:13:12;98005.22;;;23.71;61.03
20394;BME280;10356;50.544;9.642;2022-08-19T10:15:38;98008.31;;;23.55;61.70
20394;BME280;10356;50.544;9.642;2022-08-19T10:18:06;98005.84;;;23.60;62.45
20394;BME280;10356;50.544;9.642;2022-08-19T10:20:34;98000.03;;;23.96;60.29
20394;BME280;10356;50.544;9.642;2022-08-19T10:23:03;97989.50;;;24.34;59.11
20394;BME280;10356;50.544;9.642;2022-08-19T10:25:31;97988.53;;;24.97;57.43
20394;BME280;10356;50.544;9.642;2022-08-19T10:27:59;97976.63;;;25.24;55.90
20394;BME280;10356;50.544;9.642;2022-08-19T10:30:25;97977.38;;;25.31;55.50
20394;BME280;10356;50.544;9.642;2022-08-19T10:32:52;97973.91;;;25.55;54.40
20394;BME280;10356;50.544;9.642;2022-08-19T10:35:19;97970.28;;;25.86;53.72
20394;BME280;10356;50.544;9.642;2022-08-19T10:37:47;97966.41;;;26.07;54.33
20394;BME280;10356;50.544;9.642;2022-08-19T10:40:14;97962.13;;;26.65;51.71
20394;BME280;10356;50.544;9.642;2022-08-19T10:42:40;97963.06;;;26.71;50.75
20394;BME280;10356;50.544;9.642;2022-08-19T10:45:07;97967.63;;;26.22;52.65
20394;BME280;10356;50.544;9.642;2022-08-19T10:47:34;97952.50;;;26.64;50.99
20394;BME280;10356;50.544;9.642;2022-08-19T10:50:01;97964.34;;;26.02;53.41
20394;BME280;10356;50.544;9.642;2022-08-19T10:52:49;97952.88;;;26.38;52.47
20394;BME280;10356;50.544;9.642;2022-08-19T10:55:17;97954.56;;;26.32;52.17
20394;BME280;10356;50.544;9.642;2022-08-19T10:58:02;97953.44;;;26.40;52.45
20394;BME280;10356;50.544;9.642;2022-08-19T11:00:28;97951.75;;;26.57;51.69
20394;BME280;10356;50.544;9.642;2022-08-19T11:02:56;97947.72;;;27.07;50.75
20394;BME280;10356;50.544;9.642;2022-08-19T11:05:22;97953.25;;;27.35;49.95
20394;BME280;10356;50.544;9.642;2022-08-19T11:07:50;97952.22;;;27.36;49.10
20394;BME280;10356;50.544;9.642;2022-08-19T11:10:17;97953.47;;;27.22;48.19
20394;BME280;10356;50.544;9.642;2022-08-19T11:12:44;97946.31;;;26.93;48.63
20394;BME280;10356;50.544;9.642;2022-08-19T11:15:12;97937.84;;;27.19;48.56
20394;BME280;10356;50.544;9.642;2022-08-19T11:17:38;97941.97;;;27.57;47.76
20394;BME280;10356;50.544;9.642;2022-08-19T11:20:09;97942.66;;;27.75;47.78
20394;BME280;10356;50.544;9.642;2022-08-19T11:22:35;97937.84;;;28.40;46.50
20394;BME280;10356;50.544;9.642;2022-08-19T11:25:05;97926.09;;;28.30;45.41
20394;BME280;10356;50.544;9.642;2022-08-19T11:27:31;97939.00;;;28.44;44.74
20394;BME280;10356;50.544;9.642;2022-08-19T11:29:58;97932.78;;;28.55;43.95
20394;BME280;10356;50.544;9.642;2022-08-19T11:32:25;97933.81;;;28.54;44.10
20394;BME280;10356;50.544;9.642;2022-08-19T11:34:52;97931.59;;;28.23;44.66
20394;BME280;10356;50.544;9.642;2022-08-19T11:37:19;97924.28;;;28.58;44.53
20394;BME280;10356;50.544;9.642;2022-08-19T11:39:46;97932.59;;;28.90;43.20
20394;BME280;10356;50.544;9.642;2022-08-19T11:42:14;97921.03;;;28.89;42.76
20394;BME280;10356;50.544;9.642;2022-08-19T11:44:58;97923.66;;;28.84;42.44
20394;BME280;10356;50.544;9.642;2022-08-19T11:47:25;97923.16;;;28.03;43.01
20394;BME280;10356;50.544;9.642;2022-08-19T11:49:51;97935.16;;;27.19;44.50
20394;BME280;10356;50.544;9.642;2022-08-19T11:52:18;97926.94;;;27.67;43.56
20394;BME280;10356;50.544;9.642;2022-08-19T11:54:45;97927.44;;;28.15;43.62
20394;BME280;10356;50.544;9.642;2022-08-19T11:57:11;97927.63;;;27.63;44.08
20394;BME280;10356;50.544;9.642;2022-08-19T11:59:41;97920.13;;;27.88;43.54
20394;BME280;10356;50.544;9.642;2022-08-19T12:02:07;97918.63;;;27.80;43.85
20394;BME280;10356;50.544;9.642;2022-08-19T12:04:35;97917.66;;;27.47;44.59
20394;BME280;10356;50.544;9.642;2022-08-19T12:07:02;97913.75;;;27.19;44.77
20394;BME280;10356;50.544;9.642;2022-08-19T12:09:30;97908.41;;;27.19;44.88
20394;BME280;10356;50.544;9.642;2022-08-19T12:11:59;97906.66;;;27.13;44.54
20394;BME280;10356;50.544;9.642;2022-08-19T12:14:27;97908.22;;;27.21;44.98
20394;BME280;10356;50.544;9.642;2022-08-19T12:16:57;97907.38;;;27.43;44.36
20394;BME280;10356;50.544;9.642;2022-08-19T12:19:24;97897.25;;;27.46;44.81
20394;BME280;10356;50.544;9.642;2022-08-19T12:21:51;97900.19;;;27.21;44.87
20394;BME280;10356;50.544;9.642;2022-08-19T12:24:20;97891.50;;;26.73;46.54
20394;BME280;10356;50.544;9.642;2022-08-19T12:26:48;97893.16;;;26.74;45.58
20394;BME280;10356;50.544;9.642;2022-08-19T12:29:15;97897.91;;;26.72;46.68
20394;BME280;10356;50.544;9.642;2022-08-19T12:31:41;97900.72;;;26.88;45.83
20394;BME280;10356;50.544;9.642;2022-08-19T12:34:09;97896.56;;;26.92;45.34
20394;BME280;10356;50.544;9.642;2022-08-19T12:36:36;97894.91;;;26.80;46.03
20394;BME280;10356;50.544;9.642;2022-08-19T12:39:03;97900.16;;;26.98;46.36
20394;BME280;10356;50.544;9.642;2022-08-19T12:41:30;97893.50;;;26.77;46.05
20394;BME280;10356;50.544;9.642;2022-08-19T12:43:57;97886.19;;;27.07;46.28
20394;BME280;10356;50.544;9.642;2022-08-19T12:46:24;97883.31;;;27.43;45.18
20394;BME280;10356;50.544;9.642;2022-08-19T12:48:50;97881.34;;;27.39;45.29
20394;BME280;10356;50.544;9.642;2022-08-19T12:51:20;97869.84;;;27.78;44.28
20394;BME280;10356;50.544;9.642;2022-08-19T12:53:47;97873.69;;;27.82;43.69
20394;BME280;10356;50.544;9.642;2022-08-19T12:56:15;97876.78;;;27.28;44.85
20394;BME280;10356;50.544;9.642;2022-08-19T12:58:42;97872.66;;;27.72;45.16
20394;BME280;10356;50.544;9.642;2022-08-19T13:01:11;97879.53;;;27.68;44.05
20394;BME280;10356;50.544;9.642;2022-08-19T13:03:38;97878.03;;;27.60;43.93